Time;durP1;ratioP1;P1;durP2;ratioP2;P2;SDS_P1;SDS_P2;PMS_P1;PMS_P2;Temp;Humidity;BMP_temperature;BMP_pressure;BME280_temperature;BME280_humidity;BME280_pressure;Samples;Min_cycle;Max_cycle;Signal;HPM_P1;HPM_P2
2023/06/25 00:01:28;;;;;;;9.60;8.70;;;;;;;18.07;59.68;100908.22;110928;1258;23634;-82
2023/06/25 00:04:05;;;;;;;11.00;10.00;;;;;;;17.98;59.77;100899.26;111151;1258;23586;-82
2023/06/25 00:07:16;;;;;;;10.10;9.10;;;;;;;18.00;59.84;100912.02;111007;1258;23680;-84
2023/06/25 00:10:51;;;;;;;;;;;;;;;;;;;;;
2023/06/25 00:13:41;;;;;;;10.80;9.70;;;;;;;17.87;59.95;100907.48;111116;1259;21961;-83
2023/06/25 00:16:25;;;;;;;11.60;9.70;;;;;;;17.78;59.88;100897.79;110927;1258;21961;-83
2023/06/25 00:19:17;;;;;;;11.90;10.10;;;;;;;17.75;60.02;100893.94;111017;1258;21959;-83
2023/06/25 00:21:53;;;;;;;11.50;9.50;;;;;;;17.80;60.08;100905.59;111020;1258;21972;-84
2023/06/25 00:24:41;;;;;;;10.90;9.80;;;;;;;17.78;60.09;100902.36;111205;1255;21962;-83
2023/06/25 00:27:27;;;;;;;11.60;10.20;;;;;;;17.74;60.01;100897.99;111094;1257;23699;-84
2023/06/25 00:30:08;;;;;;;11.00;10.10;;;;;;;17.70;60.14;100895.46;111331;1257;21939;-82
2023/06/25 00:32:54;;;;;;;11.60;10.40;;;;;;;17.65;60.22;100893.10;111068;1256;21960;-81
2023/06/25 00:36:06;;;;;;;13.70;11.70;;;;;;;17.62;60.31;100893.13;111163;1257;21967;-81
2023/06/25 00:38:39;;;;;;;13.50;12.10;;;;;;;17.57;60.53;100893.23;111242;1257;21986;-83
2023/06/25 00:41:34;;;;;;;15.00;12.70;;;;;;;17.52;60.54;100890.87;110982;1257;22276;-83
2023/06/25 00:44:33;;;;;;;13.70;12.40;;;;;;;17.38;60.70;100877.94;111128;1257;23978;-82
2023/06/25 00:47:06;;;;;;;15.00;13.50;;;;;;;17.42;60.75;100885.61;111226;1248;23103;-82
2023/06/25 00:49:46;;;;;;;14.40;13.10;;;;;;;17.41;60.85;100882.73;111120;1257;21957;-82
2023/06/25 00:52:35;;;;;;;12.80;11.60;;;;;;;17.36;60.98;100875.77;111180;1255;23032;-81
2023/06/25 00:55:20;;;;;;;13.10;11.90;;;;;;;17.33;61.15;100876.65;110556;1262;21968;-82
2023/06/25 00:58:07;;;;;;;13.90;12.10;;;;;;;17.32;61.24;100875.15;110804;1260;23015;-83
2023/06/25 01:00:59;;;;;;;15.50;13.10;;;;;;;17.28;61.44;100873.41;110699;1262;21968;-82
2023/06/25 01:03:54;;;;;;;13.60;12.30;;;;;;;17.26;61.55;100874.23;110435;1262;21987;-83
2023/06/25 01:06:48;;;;;;;13.60;12.30;;;;;;;17.17;61.69;100874.21;110597;1262;21978;-80
2023/06/25 01:09:25;;;;;;;;;;;;;;;17.09;61.80;100866.95;110806;1262;22980;-80
2023/06/25 01:12:22;;;;;;;12.80;11.20;;;;;;;17.02;62.31;100872.77;110783;1262;24104;-81
2023/06/25 01:15:08;;;;;;;11.90;10.80;;;;;;;17.01;62.40;100869.52;111407;1255;21974;-80
2023/06/25 01:17:48;;;;;;;12.90;11.60;;;;;;;17.02;62.50;100870.00;111324;1256;22616;-80
2023/06/25 01:20:27;;;;;;;13.50;12.20;;;;;;;16.94;62.46;100860.38;110796;1261;22823;-82
2023/06/25 01:23:29;;;;;;;12.90;11.70;;;;;;;16.98;62.53;100877.21;110935;1261;21977;-81
2023/06/25 01:26:12;;;;;;;13.50;12.20;;;;;;;16.96;62.60;100871.88;110858;1261;21966;-81
2023/06/25 01:28:56;;;;;;;12.80;11.70;;;;;;;16.95;62.66;100868.95;110393;1264;22418;-80
2023/06/25 01:31:34;;;;;;;11.70;10.50;;;;;;;16.93;62.71;100865.74;110419;1264;22972;-80
2023/06/25 01:34:10;;;;;;;12.80;11.50;;;;;;;16.90;62.65;100866.80;110339;1259;21981;-80
2023/06/25 01:36:49;;;;;;;14.00;11.50;;;;;;;16.84;62.58;100861.64;110047;1265;21980;-80
2023/06/25 01:39:39;;;;;;;12.70;11.10;;;;;;;16.78;62.81;100860.21;110436;1264;22012;-81
2023/06/25 01:42:21;;;;;;;12.30;11.10;;;;;;;16.75;62.88;100855.79;110724;1263;22956;-79
2023/06/25 01:44:57;;;;;;;12.30;11.00;;;;;;;16.74;62.97;100860.77;110608;1263;22235;-78
2023/06/25 01:47:34;;;;;;;14.20;12.90;;;;;;;16.72;62.82;100858.27;110586;1264;21977;-80
2023/06/25 01:50:15;;;;;;;14.20;12.80;;;;;;;16.67;62.79;100855.55;110639;1263;21967;-80
2023/06/25 01:52:55;;;;;;;14.50;13.10;;;;;;;16.62;62.94;100857.06;110175;1265;21970;-80
2023/06/25 01:55:35;;;;;;;14.10;11.30;;;;;;;16.59;63.07;100851.77;110261;1265;22138;-80
2023/06/25 01:58:09;;;;;;;12.20;10.90;;;;;;;16.55;62.93;100849.52;110819;1264;22038;-82
2023/06/25 02:00:41;;;;;;;10.90;9.80;;;;;;;16.52;62.84;100848.66;110141;1267;22102;-81
2023/06/25 02:03:22;;;;;;;11.10;10.00;;;;;;;16.36;63.01;100829.64;110175;1267;22041;-83
2023/06/25 02:06:12;;;;;;;14.80;11.40;;;;;;;16.37;63.13;100835.58;110596;1260;22190;-81
2023/06/25 02:08:48;;;;;;;15.20;9.70;;;;;;;16.26;63.24;100824.39;110814;1260;21979;-83
2023/06/25 02:11:27;;;;;;;11.20;10.00;;;;;;;16.28;63.27;100833.06;110775;1260;22326;-81
2023/06/25 02:14:19;;;;;;;12.70;11.30;;;;;;;16.30;63.23;100842.08;110232;1261;21975;-80
2023/06/25 02:16:59;;;;;;;12.20;11.00;;;;;;;16.29;63.41;100843.38;110253;1265;22757;-82
2023/06/25 02:19:35;;;;;;;15.20;11.30;;;;;;;16.26;63.34;100843.20;110620;1261;22937;-82
2023/06/25 02:22:14;;;;;;;11.10;10.00;;;;;;;16.21;63.44;100843.30;110746;1261;21981;-81
2023/06/25 02:25:02;;;;;;;14.90;10.10;;;;;;;16.09;63.45;100826.91;110705;1261;21982;-82
2023/06/25 02:27:37;;;;;;;11.50;10.50;;;;;;;16.13;63.60;100835.48;110525;1261;22729;-81
2023/06/25 02:30:12;;;;;;;12.10;10.10;;;;;;;16.10;63.59;100836.35;110611;1261;23781;-82
2023/06/25 02:32:45;;;;;;;11.40;10.20;;;;;;;16.07;63.66;100838.27;110633;1260;22719;-81
2023/06/25 02:35:19;;;;;;;11.50;10.30;;;;;;;16.04;63.70;100836.64;110768;1261;22334;-79
2023/06/25 02:38:17;;;;;;;10.50;9.50;;;;;;;15.98;63.68;100838.53;110798;1261;21990;-81
2023/06/25 02:40:50;;;;;;;14.60;10.10;;;;;;;15.96;63.74;100839.34;110742;1261;22844;-80
2023/06/25 02:44:05;;;;;;;13.60;9.70;;;;;;;15.95;63.65;100836.91;110814;1262;21967;-82
2023/06/25 02:46:58;;;;;;;11.20;9.20;;;;;;;15.90;63.92;100835.59;110555;1263;23010;-79
2023/06/25 02:49:42;;;;;;;13.20;10.30;;;;;;;15.89;63.91;100834.10;110521;1263;23074;-80
2023/06/25 02:52:23;;;;;;;14.20;9.50;;;;;;;15.89;63.94;100831.64;110176;1268;21971;-80
2023/06/25 02:55:00;;;;;;;13.40;11.90;;;;;;;15.89;63.75;100834.42;109860;1268;21981;-82
2023/06/25 02:57:35;;;;;;;11.10;9.90;;;;;;;15.89;63.60;100831.46;110128;1268;21987;-81
2023/06/25 03:00:10;;;;;;;10.90;9.80;;;;;;;15.81;63.50;100818.52;110213;1268;22378;-80
2023/06/25 03:02:47;;;;;;;10.30;9.20;;;;;;;15.80;63.47;100821.56;110171;1268;22054;-81
2023/06/25 03:05:20;;;;;;;10.20;9.10;;;;;;;15.86;63.28;100833.73;110203;1268;22079;-80
2023/06/25 03:08:04;;;;;;;9.80;8.80;;;;;;;15.80;63.22;100822.27;109964;1266;21983;-82
2023/06/25 03:11:10;;;;;;;11.70;9.10;;;;;;;15.82;63.15;100832.19;110441;1260;21995;-80
2023/06/25 03:13:49;;;;;;;10.10;9.10;;;;;;;15.79;63.10;100835.30;110750;1260;22398;-82
2023/06/25 03:16:53;;;;;;;9.80;8.30;;;;;;;15.76;63.05;100836.70;110481;1260;23628;-81
2023/06/25 03:19:37;;;;;;;9.90;9.00;;;;;;;15.67;63.16;100830.27;110337;1263;22039;-81
2023/06/25 03:22:34;;;;;;;10.50;8.70;;;;;;;15.67;63.12;100832.20;110645;1263;21963;-82
2023/06/25 03:25:37;;;;;;;11.80;9.30;;;;;;;15.76;63.14;100840.34;110523;1263;23743;-81
2023/06/25 03:28:36;;;;;;;11.10;8.90;;;;;;;15.78;63.21;100836.90;110580;1263;22956;-79
2023/06/25 03:31:11;;;;;;;11.60;8.80;;;;;;;15.82;63.01;100837.43;110515;1263;21999;-81
2023/06/25 03:34:01;;;;;;;11.00;9.50;;;;;;;15.85;63.03;100834.30;110615;1263;21987;-81
2023/06/25 03:36:38;;;;;;;9.40;8.40;;;;;;;15.88;62.99;100834.48;110062;1266;21982;-81
2023/06/25 03:39:18;;;;;;;12.40;9.00;;;;;;;15.88;62.78;100832.18;110227;1267;21990;-80
2023/06/25 03:42:05;;;;;;;11.40;8.80;;;;;;;15.90;62.68;100839.45;110111;1266;21953;-81
2023/06/25 03:44:52;;;;;;;10.90;8.80;;;;;;;15.87;62.71;100835.23;110209;1265;22119;-82
2023/06/25 03:47:33;;;;;;;12.10;10.50;;;;;;;15.92;62.87;100837.80;110636;1265;24377;-83
2023/06/25 03:50:09;;;;;;;10.50;9.40;;;;;;;15.86;62.85;100825.10;110281;1265;23864;-84
2023/06/25 03:52:39;;;;;;;10.90;9.90;;;;;;;15.99;62.93;100839.86;109936;1265;21988;-81
2023/06/25 03:55:16;;;;;;;10.80;9.80;;;;;;;16.03;62.85;100839.99;110348;1265;22004;-83
2023/06/25 03:57:50;;;;;;;12.50;10.80;;;;;;;16.08;62.85;100841.02;110733;1259;21998;-82
2023/06/25 04:00:24;;;;;;;13.30;9.20;;;;;;;16.12;62.62;100843.06;111048;1259;21975;-83
2023/06/25 04:03:11;;;;;;;12.60;9.90;;;;;;;16.17;62.63;100844.87;110898;1259;21966;-82
2023/06/25 04:05:49;;;;;;;10.30;9.00;;;;;;;16.23;62.64;100847.53;111030;1259;21970;-82
2023/06/25 04:08:44;;;;;;;11.30;9.00;;;;;;;16.28;62.58;100847.64;110880;1259;23622;-83
2023/06/25 04:11:27;;;;;;;10.00;8.00;;;;;;;16.37;62.67;100843.46;110430;1265;22073;-83
2023/06/25 04:14:07;;;;;;;10.60;9.00;;;;;;;16.46;62.56;100844.77;110364;1263;21953;-81
2023/06/25 04:19:47;;;;;;;10.20;9.20;;;;;;;16.47;62.31;100825.55;110867;1263;22003;-84
2023/06/25 04:22:17;;;;;;;10.20;8.40;;;;;;;16.75;62.41;100852.13;110830;1263;22082;-83
2023/06/25 04:25:11;;;;;;;10.10;9.20;;;;;;;16.88;62.07;100855.11;110785;1263;22013;-84
2023/06/25 04:27:45;;;;;;;10.40;8.90;;;;;;;16.98;61.74;100853.34;110771;1262;24344;-81
2023/06/25 04:30:17;;;;;;;8.90;8.10;;;;;;;17.09;61.73;100853.77;110986;1256;22025;-83
2023/06/25 04:33:01;;;;;;;10.10;8.50;;;;;;;17.23;61.69;100852.04;111067;1256;21969;-83
2023/06/25 04:35:39;;;;;;;12.60;8.70;;;;;;;17.37;61.43;100852.52;111012;1256;23830;-83
2023/06/25 04:38:33;;;;;;;12.40;9.20;;;;;;;17.53;61.36;100851.90;111362;1257;22006;-85
2023/06/25 04:41:03;;;;;;;10.30;8.40;;;;;;;17.71;61.04;100847.17;111221;1256;23020;-82
2023/06/25 04:43:40;;;;;;;10.30;8.10;;;;;;;17.87;60.74;100846.92;111183;1256;22012;-85
2023/06/25 04:46:39;;;;;;;9.90;8.10;;;;;;;18.05;60.62;100848.50;109075;1256;2711864;-82
2023/06/25 04:49:16;;;;;;;10.40;8.50;;;;;;;18.31;60.57;100848.96;111161;1256;23035;-81
2023/06/25 04:52:46;;;;;;;;;;;;;;;18.68;60.42;100851.23;111330;1256;22023;-84
2023/06/25 04:55:54;;;;;;;11.60;8.10;;;;;;;19.04;60.41;100840.14;111240;1256;23593;-81
2023/06/25 04:59:01;;;;;;;10.10;7.70;;;;;;;19.68;60.00;100849.31;111348;1255;21976;-80
2023/06/25 05:02:08;;;;;;;10.20;7.80;;;;;;;20.39;58.58;100851.85;110191;1269;23042;-82
2023/06/25 05:05:03;;;;;;;8.00;6.80;;;;;;;21.03;56.84;100847.23;109061;1278;23116;-83
2023/06/25 05:07:58;;;;;;;8.60;7.10;;;;;;;21.48;54.31;100850.10;108806;1281;21983;-83
2023/06/25 05:11:26;;;;;;;11.30;7.60;;;;;;;21.85;53.38;100840.32;108944;1281;24329;-80
2023/06/25 05:14:26;;;;;;;9.50;8.50;;;;;;;22.28;52.26;100838.64;108657;1286;22014;-82
2023/06/25 05:17:23;;;;;;;10.40;7.50;;;;;;;22.77;51.04;100844.61;108026;1290;21999;-83
2023/06/25 05:21:03;;;;;;;12.30;7.40;;;;;;;23.11;50.11;100843.07;108359;1288;21987;-84
2023/06/25 05:23:49;;;;;;;12.90;7.80;;;;;;;23.49;49.35;100849.54;108449;1284;22014;-84
2023/06/25 05:26:24;;;;;;;9.50;7.90;;;;;;;23.82;48.68;100848.52;108669;1283;23160;-85
2023/06/25 05:29:09;;;;;;;;;;;;;;;;;;;;;
2023/06/25 05:31:46;;;;;;;9.40;7.70;;;;;;;24.51;47.04;100848.77;108969;1278;22009;-87
2023/06/25 05:34:22;;;;;;;9.80;7.20;;;;;;;24.74;45.66;100854.02;109239;1273;23669;-83
2023/06/25 05:36:59;;;;;;;10.20;7.80;;;;;;;24.79;45.18;100853.74;109702;1269;21949;-83
2023/06/25 05:39:42;;;;;;;11.40;7.70;;;;;;;24.89;45.17;100851.11;110473;1265;21980;-84
2023/06/25 05:42:24;;;;;;;9.50;7.10;;;;;;;24.93;45.20;100854.10;110199;1269;24297;-83
2023/06/25 05:45:17;;;;;;;10.80;7.90;;;;;;;25.08;44.72;100851.19;110213;1264;22721;-82
2023/06/25 05:47:56;;;;;;;10.40;6.80;;;;;;;25.16;44.62;100854.00;110198;1269;23713;-80
2023/06/25 05:50:37;;;;;;;8.60;7.70;;;;;;;25.26;44.47;100853.27;109881;1269;22083;-84
2023/06/25 05:53:31;;;;;;;11.70;7.10;;;;;;;25.47;44.00;100856.01;109981;1269;22847;-81
2023/06/25 05:56:03;;;;;;;8.40;6.80;;;;;;;25.54;43.86;100857.10;110020;1269;21991;-80
2023/06/25 05:58:41;;;;;;;10.20;7.80;;;;;;;25.76;43.54;100852.95;109886;1269;21967;-81
2023/06/25 06:01:13;;;;;;;10.60;9.30;;;;;;;25.97;43.56;100846.88;110570;1263;21960;-81
2023/06/25 06:03:46;;;;;;;10.20;8.30;;;;;;;26.22;42.91;100847.55;110748;1264;22068;-80
2023/06/25 06:06:24;;;;;;;8.80;7.70;;;;;;;26.35;42.02;100847.85;110804;1246;23049;-80
2023/06/25 06:09:00;;;;;;;7.30;6.30;;;;;;;26.35;41.06;100845.59;110935;1257;21983;-84
2023/06/25 06:11:37;;;;;;;11.00;7.50;;;;;;;26.26;41.73;100851.95;110951;1257;22010;-81
2023/06/25 06:14:28;;;;;;;10.30;7.40;;;;;;;26.38;41.97;100850.09;111051;1257;21992;-79
2023/06/25 06:17:09;;;;;;;7.70;6.90;;;;;;;26.56;41.67;100847.63;111118;1257;21990;-83
2023/06/25 06:19:50;;;;;;;7.70;6.90;;;;;;;26.70;41.36;100841.65;111085;1257;23020;-81
2023/06/25 06:22:43;;;;;;;8.40;6.60;;;;;;;26.87;40.68;100852.27;111218;1257;21962;-84
2023/06/25 06:25:30;;;;;;;7.60;6.80;;;;;;;26.92;40.56;100846.23;110940;1263;21969;-88
2023/06/25 06:28:02;;;;;;;7.50;6.80;;;;;;;26.98;40.29;100844.77;110587;1263;23080;-83
2023/06/25 06:30:33;;;;;;;10.00;7.60;;;;;;;27.03;40.08;100844.42;110822;1252;23024;-82
2023/06/25 06:33:23;;;;;;;7.60;6.80;;;;;;;27.08;39.87;100844.32;110789;1263;22063;-80
2023/06/25 06:36:05;;;;;;;7.50;6.60;;;;;;;27.13;39.82;100841.09;110718;1263;22003;-81
2023/06/25 06:38:36;;;;;;;8.30;7.50;;;;;;;27.14;39.67;100843.73;110868;1262;22023;-81
2023/06/25 06:41:14;;;;;;;9.10;7.30;;;;;;;27.09;39.86;100841.56;109938;1269;22428;-81
2023/06/25 06:43:44;;;;;;;10.50;8.90;;;;;;;27.11;40.24;100842.58;109903;1270;23065;-81
2023/06/25 06:46:20;;;;;;;9.90;7.00;;;;;;;27.20;39.87;100843.44;110235;1270;23055;-80
2023/06/25 06:48:54;;;;;;;9.90;7.00;;;;;;;27.31;39.89;100844.21;109888;1270;22047;-82
2023/06/25 06:51:29;;;;;;;8.40;6.40;;;;;;;27.44;39.24;100845.53;109900;1270;21990;-82
2023/06/25 06:54:09;;;;;;;6.90;5.70;;;;;;;27.52;39.01;100842.57;109655;1273;23599;-81
2023/06/25 06:56:45;;;;;;;10.10;6.60;;;;;;;27.57;38.75;100846.73;109820;1268;23707;-80
2023/06/25 06:59:20;;;;;;;8.70;6.30;;;;;;;27.54;38.69;100844.16;110613;1261;23052;-80
2023/06/25 07:01:54;;;;;;;5.90;5.40;;;;;;;27.62;39.16;100843.38;111048;1261;21990;-81
2023/06/25 07:04:31;;;;;;;6.70;5.30;;;;;;;27.78;38.65;100846.71;110780;1261;23778;-80
2023/06/25 07:07:06;;;;;;;8.10;5.60;;;;;;;27.80;38.34;100841.54;110991;1261;21999;-81
2023/06/25 07:09:49;;;;;;;7.70;5.50;;;;;;;27.89;38.22;100839.68;110963;1261;23145;-81
2023/06/25 07:12:25;;;;;;;7.40;5.80;;;;;;;27.89;37.72;100834.17;111171;1257;23564;-81
2023/06/25 07:15:03;;;;;;;7.40;4.70;;;;;;;27.94;37.41;100833.08;111173;1244;23748;-80
2023/06/25 07:17:41;;;;;;;6.00;5.30;;;;;;;28.04;37.10;100843.56;111133;1254;22054;-80
2023/06/25 07:20:13;;;;;;;6.80;4.80;;;;;;;28.07;36.94;100841.27;110939;1246;23725;-81
2023/06/25 07:22:51;;;;;;;6.30;4.50;;;;;;;28.06;37.04;100836.86;111036;1257;23076;-81
2023/06/25 07:25:30;;;;;;;8.00;5.00;;;;;;;28.20;36.64;100835.10;111190;1257;22024;-85
2023/06/25 07:28:24;;;;;;;7.00;5.40;;;;;;;28.18;35.66;100819.40;111031;1256;21965;-84
2023/06/25 07:31:13;;;;;;;8.30;5.30;;;;;;;28.19;35.80;100827.09;111130;1257;22053;-83
2023/06/25 07:33:54;;;;;;;9.60;4.70;;;;;;;28.28;35.73;100831.31;111128;1257;22027;-84
2023/06/25 07:36:31;;;;;;;8.90;4.60;;;;;;;28.38;35.56;100832.08;111229;1256;23598;-82
2023/06/25 07:39:33;;;;;;;5.60;4.60;;;;;;;28.45;35.39;100823.32;111089;1257;22957;-82
2023/06/25 07:42:16;;;;;;;6.50;4.50;;;;;;;28.50;35.13;100823.47;111239;1256;21967;-82
2023/06/25 07:45:04;;;;;;;7.60;4.40;;;;;;;28.51;34.71;100820.16;111122;1256;23530;-81
2023/06/25 07:47:41;;;;;;;5.50;4.90;;;;;;;28.59;34.17;100826.09;111067;1257;22722;-82
2023/06/25 07:50:16;;;;;;;8.60;4.50;;;;;;;28.56;34.08;100821.82;110997;1257;22490;-82
2023/06/25 07:53:13;;;;;;;7.70;5.50;;;;;;;28.55;34.28;100825.68;110845;1260;21999;-81
2023/06/25 07:56:19;;;;;;;5.60;4.80;;;;;;;28.54;33.78;100823.30;110768;1261;21963;-85
2023/06/25 07:58:51;;;;;;;6.40;4.50;;;;;;;28.44;33.94;100812.98;111011;1261;22389;-80
2023/06/25 08:01:29;;;;;;;7.90;4.00;;;;;;;28.49;34.01;100817.89;110782;1260;21963;-82
2023/06/25 08:04:06;;;;;;;7.60;5.90;;;;;;;28.46;33.67;100818.13;110890;1260;21972;-86
2023/06/25 08:06:40;;;;;;;6.90;4.60;;;;;;;28.41;33.97;100818.53;110865;1261;21969;-81
2023/06/25 08:09:14;;;;;;;8.00;3.80;;;;;;;28.43;33.80;100816.33;111030;1260;22533;-79
2023/06/25 08:11:52;;;;;;;4.80;4.30;;;;;;;28.47;33.99;100813.63;110853;1261;21958;-81
2023/06/25 08:14:22;;;;;;;6.40;3.90;;;;;;;28.51;33.28;100814.13;110943;1259;22005;-83
2023/06/25 08:16:54;;;;;;;4.90;3.70;;;;;;;28.48;33.40;100811.58;110756;1260;23586;-81
2023/06/25 08:19:23;;;;;;;5.00;4.00;;;;;;;28.55;33.08;100811.16;110915;1261;21920;-80
2023/06/25 08:21:53;;;;;;;5.60;3.80;;;;;;;28.63;33.23;100815.71;110954;1261;22077;-82
2023/06/25 08:24:40;;;;;;;4.50;4.10;;;;;;;28.54;32.55;100821.65;110963;1257;22423;-80
2023/06/25 08:27:13;;;;;;;6.30;3.50;;;;;;;28.30;32.67;100821.83;110869;1258;24134;-81
2023/06/25 08:29:55;;;;;;;10.30;5.80;;;;;;;28.15;32.99;100821.98;110351;1265;21975;-81
2023/06/25 08:32:31;;;;;;;6.70;4.20;;;;;;;28.16;33.14;100815.57;110706;1265;23004;-82
2023/06/25 08:35:05;;;;;;;8.30;6.30;;;;;;;28.28;32.85;100806.08;110622;1264;21978;-81
2023/06/25 08:37:47;;;;;;;4.40;3.40;;;;;;;28.38;32.70;100804.67;110377;1265;21963;-81
2023/06/25 08:40:26;;;;;;;5.20;3.50;;;;;;;28.45;32.50;100800.26;110571;1266;22238;-81
2023/06/25 08:43:03;;;;;;;4.30;3.00;;;;;;;28.47;31.90;100802.35;110349;1265;22037;-79
2023/06/25 08:45:40;;;;;;;6.10;3.40;;;;;;;28.37;31.72;100799.77;110404;1261;21974;-81
2023/06/25 08:48:14;;;;;;;11.40;5.10;;;;;;;28.29;32.06;100796.73;110993;1256;24320;-81
2023/06/25 08:51:02;;;;;;;5.20;3.40;;;;;;;28.23;31.95;100791.94;110709;1260;22197;-81
2023/06/25 08:53:33;;;;;;;5.20;3.40;;;;;;;28.18;31.72;100796.86;110910;1260;21987;-80
2023/06/25 08:56:08;;;;;;;5.30;3.70;;;;;;;28.18;31.83;100798.42;110726;1260;21986;-81
2023/06/25 08:58:45;;;;;;;4.00;3.00;;;;;;;28.13;31.50;100798.92;110762;1263;21931;-80
2023/06/25 09:01:16;;;;;;;4.70;3.60;;;;;;;28.08;32.05;100799.10;110749;1263;23032;-80
2023/06/25 09:03:53;;;;;;;5.30;3.40;;;;;;;28.15;32.42;100800.18;110596;1263;23024;-81
2023/06/25 09:06:52;;;;;;;6.60;6.00;;;;;;;28.22;32.47;100799.25;110888;1263;22201;-81
2023/06/25 09:09:34;;;;;;;5.40;4.40;;;;;;;28.26;32.48;100802.02;110672;1263;21967;-81
2023/06/25 09:12:37;;;;;;;4.60;3.40;;;;;;;28.25;31.97;100797.13;110489;1263;21970;-82
2023/06/25 09:15:45;;;;;;;5.30;3.40;;;;;;;28.24;32.03;100796.88;110633;1260;22080;-81
2023/06/25 09:18:27;;;;;;;3.80;3.40;;;;;;;28.22;31.80;100799.61;110283;1266;22738;-82
2023/06/25 09:21:17;;;;;;;3.90;3.20;;;;;;;28.02;31.57;100774.88;110332;1266;22835;-81
2023/06/25 09:23:54;;;;;;;4.40;2.80;;;;;;;28.16;31.31;100792.33;109600;1271;23872;-80
2023/06/25 09:26:50;;;;;;;6.00;3.10;;;;;;;28.18;31.24;100787.66;109620;1272;22291;-81
2023/06/25 09:29:36;;;;;;;7.50;3.70;;;;;;;28.11;31.20;100783.41;109659;1269;21972;-82
2023/06/25 09:32:12;;;;;;;3.40;2.80;;;;;;;28.00;31.70;100786.19;109986;1270;22025;-81
2023/06/25 09:35:12;;;;;;;3.80;2.80;;;;;;;27.94;31.40;100778.61;110030;1270;22462;-81
2023/06/25 09:37:53;;;;;;;10.30;7.80;;;;;;;27.92;31.28;100779.84;110154;1269;21983;-81
2023/06/25 09:41:04;;;;;;;3.60;2.70;;;;;;;27.93;31.19;100779.79;109798;1271;21992;-79
2023/06/25 09:43:51;;;;;;;7.00;3.30;;;;;;;27.93;31.51;100778.73;110230;1267;21970;-80
2023/06/25 09:46:26;;;;;;;4.20;3.40;;;;;;;27.97;31.18;100774.17;110374;1267;21986;-80
2023/06/25 09:49:14;;;;;;;4.90;2.80;;;;;;;27.95;30.75;100779.77;110366;1266;21983;-80
2023/06/25 09:51:59;;;;;;;3.50;3.10;;;;;;;27.84;30.86;100774.82;110170;1267;21965;-81
2023/06/25 09:54:32;;;;;;;10.70;7.40;;;;;;;27.76;30.93;100773.27;110115;1262;21966;-81
2023/06/25 09:57:18;;;;;;;4.00;3.10;;;;;;;27.68;31.08;100763.08;110918;1262;21948;-80
2023/06/25 10:00:16;;;;;;;4.00;3.40;;;;;;;27.59;31.39;100760.21;111082;1257;23687;-81
2023/06/25 10:02:52;;;;;;;6.20;2.80;;;;;;;27.64;32.01;100765.57;110809;1257;22353;-77
2023/06/25 10:05:26;;;;;;;4.00;3.10;;;;;;;27.69;31.75;100764.72;111032;1257;23744;-76
2023/06/25 10:08:03;;;;;;;5.00;2.70;;;;;;;27.63;31.59;100761.15;110843;1257;21972;-80
2023/06/25 10:10:39;;;;;;;3.90;2.90;;;;;;;27.64;31.51;100758.23;110906;1257;23709;-77
2023/06/25 10:13:21;;;;;;;6.20;2.80;;;;;;;27.67;31.53;100756.87;110682;1249;22711;-81
2023/06/25 10:16:08;;;;;;;5.40;2.80;;;;;;;27.69;31.26;100760.77;110956;1256;23734;-87
2023/06/25 10:18:54;;;;;;;4.40;3.20;;;;;;;27.71;31.01;100763.59;110799;1259;22016;-88
2023/06/25 10:21:33;;;;;;;4.40;2.80;;;;;;;27.78;30.65;100758.39;111070;1257;21960;-87
2023/06/25 10:24:13;;;;;;;5.00;3.30;;;;;;;27.81;30.35;100757.02;111102;1259;21954;-89
2023/06/25 10:27:18;;;;;;;7.50;3.00;;;;;;;27.88;30.60;100752.75;110914;1259;22982;-85
2023/06/25 10:29:56;;;;;;;3.30;3.00;;;;;;;28.03;30.89;100749.94;111124;1259;23847;-86
2023/06/25 10:32:43;;;;;;;4.60;3.00;;;;;;;28.18;31.08;100749.79;110067;1269;22076;-87
2023/06/25 10:38:36;;;;;;;7.00;3.50;;;;;;;28.23;30.35;100748.10;110176;1270;22050;-87
2023/06/25 10:41:12;;;;;;;3.70;3.30;;;;;;;28.13;30.30;100751.39;109941;1270;23601;-88
2023/06/25 10:43:59;;;;;;;5.80;2.90;;;;;;;28.12;30.47;100744.88;109840;1267;21974;-88
2023/06/25 10:46:36;;;;;;;3.80;3.00;;;;;;;28.16;30.18;100749.80;109765;1272;22316;-88
2023/06/25 10:55:07;;;;;;;7.50;3.30;;;;;;;28.08;30.65;100736.68;109194;1281;22069;-89
2023/06/25 10:57:55;;;;;;;8.80;3.20;;;;;;;28.01;30.12;100742.23;108687;1283;23647;-86
2023/06/25 11:00:27;;;;;;;4.50;2.70;;;;;;;27.86;30.23;100744.09;108792;1285;23058;-83
2023/06/25 11:03:11;;;;;;;6.30;3.20;;;;;;;27.63;30.45;100735.05;108550;1283;22007;-81
2023/06/25 11:05:43;;;;;;;6.10;3.50;;;;;;;27.58;30.54;100741.50;108912;1280;23746;-82
2023/06/25 11:08:35;;;;;;;77.40;71.10;;;;;;;27.51;30.85;100737.05;109160;1279;22004;-84
2023/06/25 11:11:24;;;;;;;4.30;3.40;;;;;;;27.49;30.85;100722.33;109038;1279;22001;-80
2023/06/25 11:14:03;;;;;;;6.30;3.60;;;;;;;27.56;30.53;100712.04;109154;1276;22007;-79
2023/06/25 11:17:05;;;;;;;5.10;2.90;;;;;;;27.62;30.27;100715.14;109060;1281;22312;-82
2023/06/25 11:19:57;;;;;;;3.40;2.50;;;;;;;27.59;30.27;100718.86;108639;1283;21991;-81
2023/06/25 11:23:11;;;;;;;4.20;2.90;;;;;;;27.46;30.30;100716.67;108748;1283;21996;-79
2023/06/25 11:26:02;;;;;;;4.30;3.00;;;;;;;27.27;30.64;100711.64;108827;1283;21997;-79
2023/06/25 11:29:05;;;;;;;4.00;2.90;;;;;;;27.15;30.84;100696.57;109261;1270;22488;-84
2023/06/25 11:32:09;;;;;;;3.20;2.90;;;;;;;27.24;30.77;100709.77;109973;1257;21991;-81
2023/06/25 11:35:21;;;;;;;3.90;2.80;;;;;;;27.23;30.48;100706.16;110286;1265;22001;-80
2023/06/25 11:37:55;;;;;;;7.50;4.10;;;;;;;27.27;30.43;100696.96;110724;1250;21984;-80
2023/06/25 11:40:35;;;;;;;5.70;3.50;;;;;;;27.33;30.71;100697.64;110924;1262;23016;-80
2023/06/25 11:43:22;;;;;;;3.60;3.00;;;;;;;27.37;30.89;100702.22;110717;1262;22951;-83
2023/06/25 11:46:18;;;;;;;5.20;3.00;;;;;;;27.41;30.93;100703.08;110736;1262;21961;-81
2023/06/25 11:49:04;;;;;;;9.30;3.50;;;;;;;27.42;30.81;100691.48;111191;1259;21964;-81
2023/06/25 11:51:55;;;;;;;3.80;2.70;;;;;;;27.57;30.63;100691.36;111042;1259;21987;-81
2023/06/25 11:55:14;;;;;;;3.60;2.80;;;;;;;27.62;30.49;100684.59;111218;1259;22717;-82
2023/06/25 11:57:56;;;;;;;5.10;3.10;;;;;;;27.67;30.13;100680.13;111040;1258;21928;-79
2023/06/25 12:00:29;;;;;;;6.60;3.40;;;;;;;27.64;29.66;100684.91;111009;1258;22133;-81
2023/06/25 12:03:10;;;;;;;4.70;3.10;;;;;;;27.53;29.51;100682.16;111077;1258;21967;-80
2023/06/25 12:05:49;;;;;;;5.00;2.90;;;;;;;27.47;29.88;100685.05;110988;1257;21968;-82
2023/06/25 12:08:48;;;;;;;4.40;2.80;;;;;;;27.47;29.97;100679.73;111249;1256;21959;-89
2023/06/25 12:11:49;;;;;;;7.20;2.90;;;;;;;27.52;29.86;100672.85;110605;1264;22046;-87
2023/06/25 12:15:07;;;;;;;5.10;3.00;;;;;;;27.50;29.76;100670.30;110441;1264;22041;-86
2023/06/25 12:19:20;;;;;;;5.30;3.10;;;;;;;27.58;30.35;100671.70;110736;1264;23056;-86
2023/06/25 12:22:58;;;;;;;3.60;3.00;;;;;;;27.78;30.15;100664.31;110715;1264;21968;-84
2023/06/25 12:26:44;;;;;;;3.60;2.60;;;;;;;27.89;29.69;100663.60;110442;1262;24064;-86
2023/06/25 12:30:02;;;;;;;3.40;2.90;;;;;;;27.85;29.40;100655.64;110905;1260;21963;-85
2023/06/25 12:33:05;;;;;;;4.40;3.20;;;;;;;27.84;29.57;100659.96;110937;1265;21995;-86
2023/06/25 12:37:08;;;;;;;4.60;3.00;;;;;;;27.75;29.62;100656.98;110652;1265;22026;-85
2023/06/25 12:40:25;;;;;;;3.10;2.80;;;;;;;27.61;30.09;100655.95;110269;1269;21975;-84
2023/06/25 12:44:04;;;;;;;3.60;2.50;;;;;;;27.60;30.30;100655.99;110118;1269;22008;-86
2023/06/25 12:47:17;;;;;;;7.20;3.90;;;;;;;27.56;30.41;100644.47;109835;1273;21986;-86
2023/06/25 12:50:50;;;;;;;6.00;3.60;;;;;;;27.60;30.39;100647.43;109046;1276;21983;-85
2023/06/25 12:53:56;;;;;;;4.30;2.90;;;;;;;27.56;30.37;100647.19;108527;1287;22083;-86